Time;durP1;ratioP1;P1;durP2;ratioP2;P2;SDS_P1;SDS_P2;PMS_P1;PMS_P2;Temp;Humidity;BMP_temperature;BMP_pressure;BME280_temperature;BME280_humidity;BME280_pressure;Samples;Min_cycle;Max_cycle;Signal;HPM_P1;HPM_P2
2022/07/15 00:00:36;;;;;;;3.47;2.70;;;;;;;;;;4952516;28;20196;-82
2022/07/15 00:03:01;;;;;;;5.33;2.97;;;;;;;;;;4951900;29;20319;-82
2022/07/15 00:05:27;;;;;;;5.27;3.10;;;;;;;;;;4950570;28;20187;-82
2022/07/15 00:07:52;;;;;;;3.30;2.90;;;;;;;;;;4955292;28;20201;-82
2022/07/15 00:10:23;;;;;;;3.07;2.50;;;;;;;;;;4952460;28;20233;-82
2022/07/15 00:12:50;;;;;;;3.20;2.73;;;;;;;;;;4960564;28;20188;-82
2022/07/15 00:15:16;;;;;;;3.37;2.73;;;;;;;;;;4957435;28;20280;-80
2022/07/15 00:17:42;;;;;;;4.87;2.90;;;;;;;;;;4952736;29;20220;-82
2022/07/15 00:20:07;;;;;;;3.03;2.53;;;;;;;;;;4952838;28;20221;-82
2022/07/15 00:22:32;;;;;;;2.93;2.70;;;;;;;;;;4952708;28;20287;-82
2022/07/15 00:24:58;;;;;;;5.07;2.77;;;;;;;;;;4954653;28;20193;-81
2022/07/15 00:27:23;;;;;;;3.07;2.57;;;;;;;;;;4953311;28;20215;-82
2022/07/15 00:29:48;;;;;;;3.87;2.53;;;;;;;;;;4952356;28;20244;-82
2022/07/15 00:32:14;;;;;;;3.50;2.50;;;;;;;;;;4955439;28;20231;-82
2022/07/15 00:34:39;;;;;;;5.23;2.77;;;;;;;;;;4953834;29;20176;-82
2022/07/15 00:37:07;;;;;;;3.77;2.70;;;;;;;;;;4953252;28;20195;-82
2022/07/15 00:39:32;;;;;;;2.90;2.60;;;;;;;;;;4947863;28;20387;-82
2022/07/15 00:41:57;;;;;;;5.87;2.80;;;;;;;;;;4957481;28;20254;-81
2022/07/15 00:44:23;;;;;;;3.40;2.70;;;;;;;;;;4957509;28;20190;-82
2022/07/15 00:46:48;;;;;;;3.50;2.70;;;;;;;;;;4950932;28;20218;-82
2022/07/15 00:49:13;;;;;;;4.43;2.57;;;;;;;;;;4954838;28;20188;-78
2022/07/15 00:51:47;;;;;;;4.10;3.43;;;;;;;;;;4952594;28;20273;-81
2022/07/15 00:54:13;;;;;;;4.67;2.80;;;;;;;;;;4952773;28;20183;-82
2022/07/15 00:56:41;;;;;;;2.70;2.50;;;;;;;;;;4950435;28;20217;-82
2022/07/15 00:59:06;;;;;;;2.97;2.70;;;;;;;;;;4950129;28;20222;-81
2022/07/15 01:01:35;;;;;;;3.70;2.40;;;;;;;;;;4956042;28;20207;-81
2022/07/15 01:04:01;;;;;;;3.83;2.23;;;;;;;;;;4953156;28;20268;-82
2022/07/15 01:06:28;;;;;;;4.57;2.67;;;;;;;;;;4950677;28;20256;-82
2022/07/15 01:08:53;;;;;;;2.90;2.70;;;;;;;;;;4951464;28;20187;-83
2022/07/15 01:11:18;;;;;;;3.07;2.77;;;;;;;;;;4948540;28;20184;-83
2022/07/15 01:13:44;;;;;;;4.73;2.47;;;;;;;;;;4951422;28;20188;-80
2022/07/15 01:16:09;;;;;;;2.70;2.50;;;;;;;;;;4951178;28;20214;-81
2022/07/15 01:18:34;;;;;;;3.03;2.73;;;;;;;;;;4954119;28;20182;-82
2022/07/15 01:21:00;;;;;;;4.07;2.60;;;;;;;;;;4958063;28;20179;-81
2022/07/15 01:23:25;;;;;;;4.80;3.13;;;;;;;;;;4954524;28;20209;-82
2022/07/15 01:25:53;;;;;;;2.50;2.30;;;;;;;;;;4951149;28;20209;-82
2022/07/15 01:28:18;;;;;;;4.83;2.83;;;;;;;;;;4948309;28;20178;-82
2022/07/15 01:30:43;;;;;;;4.57;3.10;;;;;;;;;;4952025;28;20219;-82
2022/07/15 01:33:09;;;;;;;3.33;2.23;;;;;;;;;;4950289;28;20245;-81
2022/07/15 01:35:34;;;;;;;2.77;2.53;;;;;;;;;;4952567;28;20241;-81
2022/07/15 01:37:59;;;;;;;3.07;2.30;;;;;;;;;;4953173;28;20175;-82
2022/07/15 01:40:25;;;;;;;4.33;2.47;;;;;;;;;;4951749;28;21107;-81
2022/07/15 01:42:50;;;;;;;5.33;2.70;;;;;;;;;;4950738;28;20192;-80
2022/07/15 01:45:15;;;;;;;4.70;2.70;;;;;;;;;;4949199;28;20247;-81
2022/07/15 01:47:44;;;;;;;4.60;2.83;;;;;;;;;;4954930;28;20218;-82
2022/07/15 01:50:09;;;;;;;2.70;2.47;;;;;;;;;;4953269;28;20229;-82
2022/07/15 01:52:35;;;;;;;3.67;2.53;;;;;;;;;;4951041;28;20242;-81
2022/07/15 01:55:00;;;;;;;2.87;2.60;;;;;;;;;;4949755;28;20175;-81
2022/07/15 01:57:25;;;;;;;4.63;2.30;;;;;;;;;;4959291;28;20428;-82
2022/07/15 01:59:51;;;;;;;4.00;2.50;;;;;;;;;;4945063;28;20468;-81
2022/07/15 02:02:16;;;;;;;4.90;2.93;;;;;;;;;;4949346;28;20182;-82
2022/07/15 02:04:41;;;;;;;2.60;2.40;;;;;;;;;;4952718;28;20173;-79
2022/07/15 02:07:09;;;;;;;3.20;2.50;;;;;;;;;;4951008;28;20198;-81
2022/07/15 02:09:34;;;;;;;2.83;2.63;;;;;;;;;;4945940;28;20261;-81
2022/07/15 02:11:59;;;;;;;3.97;2.40;;;;;;;;;;4950922;28;20320;-81
2022/07/15 02:14:25;;;;;;;5.23;3.17;;;;;;;;;;4954913;28;20269;-82
2022/07/15 02:16:50;;;;;;;2.93;2.50;;;;;;;;;;4951929;28;20421;-82
2022/07/15 02:19:15;;;;;;;6.00;2.57;;;;;;;;;;4954456;28;20193;-81
2022/07/15 02:21:41;;;;;;;4.50;2.40;;;;;;;;;;4954139;28;20189;-81
2022/07/15 02:24:06;;;;;;;3.80;2.57;;;;;;;;;;4953001;28;20182;-82
2022/07/15 02:26:31;;;;;;;4.23;2.40;;;;;;;;;;4955425;28;20202;-82
2022/07/15 02:28:57;;;;;;;2.47;2.27;;;;;;;;;;4957617;28;20174;-82
2022/07/15 02:31:22;;;;;;;4.10;2.37;;;;;;;;;;4950445;28;20210;-82
2022/07/15 02:33:47;;;;;;;5.17;2.30;;;;;;;;;;4950136;28;20188;-81
2022/07/15 02:36:12;;;;;;;5.50;2.77;;;;;;;;;;4954143;28;20188;-81
2022/07/15 02:38:38;;;;;;;2.40;2.23;;;;;;;;;;4950996;28;20235;-83
2022/07/15 02:41:03;;;;;;;3.73;2.17;;;;;;;;;;4954826;28;20190;-82
2022/07/15 02:43:29;;;;;;;2.37;2.07;;;;;;;;;;4951792;28;20198;-83
2022/07/15 02:45:55;;;;;;;2.50;2.20;;;;;;;;;;4950696;29;20203;-82
2022/07/15 02:48:21;;;;;;;4.73;2.70;;;;;;;;;;4957390;28;20272;-82
2022/07/15 02:50:46;;;;;;;4.53;2.17;;;;;;;;;;4948988;28;20232;-81
2022/07/15 02:53:11;;;;;;;4.87;2.53;;;;;;;;;;4950047;28;20496;-82
2022/07/15 02:55:36;;;;;;;4.50;2.50;;;;;;;;;;4955783;28;20223;-82
2022/07/15 02:58:02;;;;;;;6.40;2.33;;;;;;;;;;4944432;28;20179;-81
2022/07/15 03:00:27;;;;;;;2.80;2.30;;;;;;;;;;4952226;28;20417;-81
2022/07/15 03:02:52;;;;;;;4.17;2.40;;;;;;;;;;4950283;28;20175;-81
2022/07/15 03:05:18;;;;;;;2.53;2.33;;;;;;;;;;4952229;28;20190;-82
2022/07/15 03:07:44;;;;;;;4.70;2.80;;;;;;;;;;4948356;28;20212;-82
2022/07/15 03:10:09;;;;;;;2.83;1.90;;;;;;;;;;4952237;28;20213;-81
2022/07/15 03:12:34;;;;;;;2.63;2.27;;;;;;;;;;4947125;28;20174;-80
2022/07/15 03:15:00;;;;;;;3.07;2.40;;;;;;;;;;4948771;28;20189;-82
2022/07/15 03:17:25;;;;;;;3.60;2.20;;;;;;;;;;4950244;28;20190;-81
2022/07/15 03:19:51;;;;;;;4.53;2.43;;;;;;;;;;4950742;28;20178;-81
2022/07/15 03:22:16;;;;;;;2.93;2.10;;;;;;;;;;4955026;28;20187;-81
2022/07/15 03:24:41;;;;;;;4.37;2.60;;;;;;;;;;4952562;28;20192;-81
2022/07/15 03:27:08;;;;;;;3.47;2.03;;;;;;;;;;4955278;28;20214;-80
2022/07/15 03:29:33;;;;;;;3.67;2.43;;;;;;;;;;4953401;28;20187;-81
2022/07/15 03:31:58;;;;;;;6.10;2.40;;;;;;;;;;4953186;28;20178;-81
2022/07/15 03:34:27;;;;;;;5.33;2.70;;;;;;;;;;4953328;28;20339;-81
2022/07/15 03:36:53;;;;;;;15.13;2.30;;;;;;;;;;4955186;28;20181;-81
2022/07/15 03:39:18;;;;;;;2.87;2.60;;;;;;;;;;4954669;28;20280;-82
2022/07/15 03:41:43;;;;;;;3.20;2.90;;;;;;;;;;4954083;28;20758;-82
2022/07/15 03:44:08;;;;;;;3.90;3.33;;;;;;;;;;4953954;28;20240;-82
2022/07/15 03:46:34;;;;;;;3.80;2.83;;;;;;;;;;4952728;28;20201;-81
2022/07/15 03:49:00;;;;;;;2.83;2.50;;;;;;;;;;4960023;28;20173;-81
2022/07/15 03:51:25;;;;;;;3.67;2.50;;;;;;;;;;4952781;28;20277;-80
2022/07/15 03:53:51;;;;;;;3.57;2.63;;;;;;;;;;4951248;28;20185;-81
2022/07/15 03:56:16;;;;;;;4.17;2.83;;;;;;;;;;4956324;28;20268;-81
2022/07/15 03:58:44;;;;;;;6.37;3.10;;;;;;;;;;4953195;28;20188;-80
2022/07/15 04:01:09;;;;;;;3.17;2.20;;;;;;;;;;4952535;28;20196;-81
2022/07/15 04:03:34;;;;;;;2.93;2.60;;;;;;;;;;4951539;28;20260;-81
2022/07/15 04:05:59;;;;;;;5.47;2.60;;;;;;;;;;4953264;28;20235;-80
2022/07/15 04:08:25;;;;;;;4.80;2.77;;;;;;;;;;4953476;28;20210;-81
2022/07/15 04:10:50;;;;;;;3.33;2.53;;;;;;;;;;4953557;29;20264;-81
2022/07/15 04:13:18;;;;;;;3.27;2.33;;;;;;;;;;4957069;28;20276;-78
2022/07/15 04:15:44;;;;;;;3.00;2.27;;;;;;;;;;4955683;28;20208;-81
2022/07/15 04:18:10;;;;;;;5.57;2.20;;;;;;;;;;4954064;28;20218;-81
2022/07/15 04:20:35;;;;;;;3.00;2.70;;;;;;;;;;4954217;28;20267;-82
2022/07/15 04:23:01;;;;;;;2.83;2.13;;;;;;;;;;4956905;28;20185;-81
2022/07/15 04:25:26;;;;;;;3.37;2.63;;;;;;;;;;4955271;28;20263;-80
2022/07/15 04:27:51;;;;;;;5.13;2.63;;;;;;;;;;4967519;28;20212;-82
2022/07/15 04:30:16;;;;;;;3.47;2.83;;;;;;;;;;4954664;28;20184;-81
2022/07/15 04:32:42;;;;;;;3.83;2.27;;;;;;;;;;4952785;28;20187;-81
2022/07/15 04:35:10;;;;;;;4.27;2.17;;;;;;;;;;4951563;28;20185;-81
2022/07/15 04:37:38;;;;;;;4.90;2.60;;;;;;;;;;4955138;28;20252;-81
2022/07/15 04:40:03;;;;;;;3.50;2.63;;;;;;;;;;4955437;28;20184;-81
2022/07/15 04:42:28;;;;;;;4.83;2.63;;;;;;;;;;4951646;28;20209;-82
2022/07/15 04:44:54;;;;;;;3.17;2.13;;;;;;;;;;4959679;28;20184;-81
2022/07/15 04:47:19;;;;;;;4.07;2.03;;;;;;;;;;4954010;28;20206;-81
2022/07/15 04:52:30;;;;;;;3.50;2.33;;;;;;;;;;4951669;28;20283;-81
2022/07/15 04:54:55;;;;;;;5.23;2.50;;;;;;;;;;4953495;28;20181;-81
2022/07/15 04:57:21;;;;;;;4.17;2.50;;;;;;;;;;4953480;28;20194;-80
2022/07/15 04:59:46;;;;;;;2.63;2.20;;;;;;;;;;4952627;28;20182;-81
2022/07/15 05:02:11;;;;;;;6.50;2.80;;;;;;;;;;4958364;28;20270;-81
2022/07/15 05:04:36;;;;;;;2.10;1.90;;;;;;;;;;4952087;28;20185;-81
2022/07/15 05:07:02;;;;;;;4.57;2.20;;;;;;;;;;4956944;28;20198;-80
2022/07/15 05:09:28;;;;;;;3.70;2.23;;;;;;;;;;4950542;28;20175;-81
2022/07/15 05:11:53;;;;;;;3.97;2.43;;;;;;;;;;4951897;29;20184;-79
2022/07/15 05:14:18;;;;;;;6.73;2.50;;;;;;;;;;4952240;28;20182;-80
2022/07/15 05:16:44;;;;;;;4.70;2.93;;;;;;;;;;4950023;28;20188;-80
2022/07/15 05:19:11;;;;;;;3.40;3.10;;;;;;;;;;4957497;28;20191;-81
2022/07/15 05:21:36;;;;;;;2.53;2.30;;;;;;;;;;4946579;28;20201;-79
2022/07/15 05:24:02;;;;;;;3.03;2.03;;;;;;;;;;4952057;28;20183;-81
2022/07/15 05:26:27;;;;;;;3.27;1.90;;;;;;;;;;4948420;28;20295;-81
2022/07/15 05:28:52;;;;;;;2.43;1.90;;;;;;;;;;4950630;28;20185;-80
2022/07/15 05:31:18;;;;;;;2.50;2.30;;;;;;;;;;4955098;28;20215;-79
2022/07/15 05:33:43;;;;;;;3.83;1.90;;;;;;;;;;4951477;28;20212;-81
2022/07/15 05:36:15;;;;;;;2.50;2.30;;;;;;;;;;4958871;28;20206;-81
2022/07/15 05:38:41;;;;;;;6.90;2.37;;;;;;;;;;4954057;28;20234;-80
2022/07/15 05:41:06;;;;;;;2.10;1.90;;;;;;;;;;4948960;28;20196;-80
2022/07/15 05:43:31;;;;;;;4.20;2.97;;;;;;;;;;4949277;28;20523;-81
2022/07/15 05:45:57;;;;;;;3.77;1.87;;;;;;;;;;4952140;28;20285;-81
2022/07/15 05:48:22;;;;;;;2.77;2.30;;;;;;;;;;4946431;28;20184;-80
2022/07/15 05:50:47;;;;;;;2.50;2.10;;;;;;;;;;4951672;28;20222;-82
2022/07/15 05:53:13;;;;;;;5.23;2.20;;;;;;;;;;4945981;28;20245;-82
2022/07/15 05:55:39;;;;;;;4.07;2.00;;;;;;;;;;4952870;28;20194;-83
2022/07/15 05:58:05;;;;;;;3.87;2.20;;;;;;;;;;4956519;28;20182;-83
2022/07/15 06:00:31;;;;;;;5.47;3.10;;;;;;;;;;4950976;28;20179;-81
2022/07/15 06:02:56;;;;;;;2.83;2.00;;;;;;;;;;4947018;28;20188;-82
2022/07/15 06:05:21;;;;;;;2.50;2.30;;;;;;;;;;4952511;28;20246;-82
2022/07/15 06:07:47;;;;;;;2.37;1.70;;;;;;;;;;4950492;28;20216;-81
2022/07/15 06:10:12;;;;;;;3.83;1.90;;;;;;;;;;4952864;28;20185;-82
2022/07/15 06:12:37;;;;;;;2.17;1.80;;;;;;;;;;4949682;28;20232;-81
2022/07/15 06:15:03;;;;;;;3.53;1.93;;;;;;;;;;4950470;28;20228;-81
2022/07/15 06:17:29;;;;;;;2.30;1.90;;;;;;;;;;4949436;28;20216;-82
2022/07/15 06:19:54;;;;;;;2.87;2.07;;;;;;;;;;4951396;28;20188;-82
2022/07/15 06:22:19;;;;;;;2.57;2.37;;;;;;;;;;4951668;28;20221;-82
2022/07/15 06:24:44;;;;;;;2.90;1.70;;;;;;;;;;4949025;28;20186;-83
2022/07/15 06:27:10;;;;;;;3.93;2.07;;;;;;;;;;4950566;28;20212;-82
2022/07/15 06:29:35;;;;;;;4.27;2.60;;;;;;;;;;4952821;28;20180;-82
2022/07/15 06:32:00;;;;;;;3.97;1.80;;;;;;;;;;4951714;29;20181;-82
2022/07/15 06:34:25;;;;;;;2.20;2.00;;;;;;;;;;4951221;28;20185;-82
2022/07/15 06:36:51;;;;;;;3.10;1.90;;;;;;;;;;4948789;28;20192;-83
2022/07/15 06:39:16;;;;;;;3.50;1.83;;;;;;;;;;4955128;28;20198;-82
2022/07/15 06:41:41;;;;;;;3.23;2.30;;;;;;;;;;4948852;28;20196;-80
2022/07/15 06:44:07;;;;;;;2.30;2.10;;;;;;;;;;4950941;28;20185;-82
2022/07/15 06:46:32;;;;;;;5.70;2.50;;;;;;;;;;4947945;28;20237;-83
2022/07/15 06:48:57;;;;;;;2.13;1.93;;;;;;;;;;4949149;28;20190;-80
2022/07/15 06:51:22;;;;;;;2.03;1.83;;;;;;;;;;4951351;28;20222;-82
2022/07/15 06:53:48;;;;;;;2.23;1.90;;;;;;;;;;4952257;28;20266;-82
2022/07/15 06:56:13;;;;;;;2.37;2.17;;;;;;;;;;4951717;28;20811;-82
2022/07/15 06:58:39;;;;;;;2.87;2.00;;;;;;;;;;4959678;28;20181;-80
2022/07/15 07:01:04;;;;;;;5.33;2.40;;;;;;;;;;4958441;28;20210;-81
2022/07/15 07:03:29;;;;;;;2.00;1.57;;;;;;;;;;4959461;28;20181;-82
2022/07/15 07:05:55;;;;;;;3.70;2.00;;;;;;;;;;4954369;28;20217;-81
2022/07/15 07:08:20;;;;;;;4.57;2.30;;;;;;;;;;4958261;28;20185;-80
2022/07/15 07:10:45;;;;;;;4.20;2.93;;;;;;;;;;4958946;28;20187;-80
2022/07/15 07:13:10;;;;;;;2.90;1.97;;;;;;;;;;4955740;28;20185;-81
2022/07/15 07:15:36;;;;;;;2.10;1.70;;;;;;;;;;4954069;29;20184;-81
2022/07/15 07:18:02;;;;;;;3.17;1.80;;;;;;;;;;4960827;28;20185;-82
2022/07/15 07:20:27;;;;;;;2.13;1.90;;;;;;;;;;4955513;28;20194;-82
2022/07/15 07:22:52;;;;;;;4.10;2.20;;;;;;;;;;4955530;28;20181;-82
2022/07/15 07:25:18;;;;;;;1.83;1.70;;;;;;;;;;4956329;28;20214;-83
2022/07/15 07:27:43;;;;;;;3.80;1.70;;;;;;;;;;4955321;28;20222;-81
2022/07/15 07:30:09;;;;;;;4.77;2.23;;;;;;;;;;4959360;28;20176;-80
2022/07/15 07:32:34;;;;;;;2.10;1.90;;;;;;;;;;4966905;28;20273;-82
2022/07/15 07:34:59;;;;;;;2.40;2.17;;;;;;;;;;4955960;29;20179;-81
2022/07/15 07:37:26;;;;;;;2.37;2.10;;;;;;;;;;4956337;28;20203;-82
2022/07/15 07:39:51;;;;;;;2.03;1.83;;;;;;;;;;4958511;28;20232;-82
2022/07/15 07:42:17;;;;;;;2.37;2.00;;;;;;;;;;4953898;29;20281;-78
2022/07/15 07:44:45;;;;;;;2.53;2.33;;;;;;;;;;4954768;29;20190;-82
2022/07/15 07:47:11;;;;;;;3.83;2.50;;;;;;;;;;4958373;28;20209;-80
2022/07/15 07:49:36;;;;;;;4.43;2.60;;;;;;;;;;4960666;28;20185;-84
2022/07/15 07:52:02;;;;;;;5.03;2.67;;;;;;;;;;4954572;29;20281;-83
2022/07/15 07:54:29;;;;;;;3.07;2.10;;;;;;;;;;4950974;28;20252;-81
2022/07/15 07:56:54;;;;;;;4.40;2.97;;;;;;;;;;4960194;28;20212;-83
2022/07/15 07:59:19;;;;;;;3.80;2.60;;;;;;;;;;4955956;28;20267;-82
2022/07/15 08:01:44;;;;;;;4.23;2.53;;;;;;;;;;4954848;29;20181;-84
2022/07/15 08:04:11;;;;;;;7.90;2.33;;;;;;;;;;4951932;28;20235;-82
2022/07/15 08:06:38;;;;;;;2.77;2.47;;;;;;;;;;4956142;28;20311;-83
2022/07/15 08:09:03;;;;;;;3.90;2.13;;;;;;;;;;4952741;28;20183;-82
2022/07/15 08:11:29;;;;;;;2.13;1.93;;;;;;;;;;4954307;28;20166;-83
2022/07/15 08:13:55;;;;;;;3.83;2.13;;;;;;;;;;4953125;29;20174;-83
2022/07/15 08:16:21;;;;;;;3.87;1.97;;;;;;;;;;4961757;28;20178;-83
2022/07/15 08:18:46;;;;;;;4.57;3.03;;;;;;;;;;4952794;28;20192;-83
2022/07/15 08:21:11;;;;;;;6.07;2.50;;;;;;;;;;4959609;28;20177;-82
2022/07/15 08:23:36;;;;;;;2.40;2.17;;;;;;;;;;4962592;28;20213;-83
2022/07/15 08:26:04;;;;;;;3.43;2.07;;;;;;;;;;4953884;28;20271;-83
2022/07/15 08:28:29;;;;;;;3.80;1.90;;;;;;;;;;4967570;28;20173;-82
2022/07/15 08:30:54;;;;;;;5.23;2.37;;;;;;;;;;4959288;28;20183;-80
2022/07/15 08:33:20;;;;;;;2.77;2.47;;;;;;;;;;4953618;28;20208;-85
2022/07/15 08:35:45;;;;;;;4.13;2.50;;;;;;;;;;4960041;28;20183;-85
2022/07/15 08:38:11;;;;;;;4.00;2.33;;;;;;;;;;4958413;28;20179;-85
2022/07/15 08:40:37;;;;;;;2.13;1.97;;;;;;;;;;4954296;29;20183;-86
2022/07/15 08:43:05;;;;;;;2.27;2.07;;;;;;;;;;4952780;28;20190;-85
2022/07/15 08:45:32;;;;;;;4.17;2.20;;;;;;;;;;4962990;28;20189;-86
2022/07/15 08:47:59;;;;;;;2.47;2.00;;;;;;;;;;4957909;28;20207;-86
2022/07/15 08:50:25;;;;;;;2.33;2.00;;;;;;;;;;4954422;28;20227;-85
2022/07/15 08:52:51;;;;;;;5.60;2.40;;;;;;;;;;4967994;28;20247;-85
2022/07/15 08:55:17;;;;;;;2.57;2.37;;;;;;;;;;4954287;28;20208;-86
2022/07/15 08:57:49;;;;;;;2.20;2.10;;;;;;;;;;4960208;28;20184;-86
2022/07/15 09:00:16;;;;;;;2.70;2.20;;;;;;;;;;4952464;28;20196;-85
2022/07/15 09:02:41;;;;;;;2.90;2.60;;;;;;;;;;4947301;29;20194;-85
2022/07/15 09:05:26;;;;;;;2.20;2.00;;;;;;;;;;4952868;28;20197;-85
2022/07/15 09:08:11;;;;;;;2.60;2.40;;;;;;;;;;4975436;28;20221;-85
2022/07/15 09:10:42;;;;;;;4.17;2.67;;;;;;;;;;4960477;28;20181;-86
2022/07/15 09:13:08;;;;;;;2.53;2.33;;;;;;;;;;4958818;28;20181;-86
2022/07/15 09:15:34;;;;;;;4.40;2.28;;;;;;;;;;4950620;29;20189;-85
2022/07/15 09:18:13;;;;;;;3.08;2.33;;;;;;;;;;4960516;28;20185;-86
2022/07/15 09:20:39;;;;;;;2.50;2.25;;;;;;;;;;4958424;28;20223;-86
2022/07/15 09:23:05;;;;;;;3.30;2.17;;;;;;;;;;4963602;28;20316;-86
2022/07/15 09:25:33;;;;;;;3.77;2.67;;;;;;;;;;4951704;28;20205;-85
2022/07/15 09:28:01;;;;;;;3.67;2.33;;;;;;;;;;4950210;28;20260;-84
2022/07/15 09:36:07;;;;;;;4.40;2.10;;;;;;;;;;4949317;29;20215;-85
2022/07/15 09:38:40;;;;;;;5.30;2.40;;;;;;;;;;4947163;28;20188;-86
2022/07/15 09:41:06;;;;;;;4.10;2.35;;;;;;;;;;4961654;28;20343;-86
2022/07/15 09:43:41;;;;;;;2.50;2.30;;;;;;;;;;4953972;28;20178;-86
2022/07/15 09:46:07;;;;;;;2.63;2.33;;;;;;;;;;4952897;28;20295;-86
2022/07/15 09:48:38;;;;;;;3.80;3.42;;;;;;;;;;4964822;28;20211;-85
2022/07/15 09:51:04;;;;;;;4.18;2.67;;;;;;;;;;4953134;28;20236;-86
2022/07/15 09:53:29;;;;;;;4.22;2.47;;;;;;;;;;4948998;28;20185;-85
2022/07/15 09:55:55;;;;;;;3.22;2.42;;;;;;;;;;4951397;29;20202;-86
2022/07/15 09:58:21;;;;;;;4.43;2.58;;;;;;;;;;4955731;28;20194;-85
2022/07/15 10:00:47;;;;;;;4.53;3.22;;;;;;;;;;4957111;28;20257;-85
2022/07/15 10:03:12;;;;;;;4.88;2.10;;;;;;;;;;4962454;28;20249;-85
2022/07/15 10:05:39;;;;;;;3.70;3.40;;;;;;;;;;4949886;28;20205;-85
2022/07/15 10:08:05;;;;;;;3.22;2.55;;;;;;;;;;4955285;28;20216;-86
2022/07/15 10:10:32;;;;;;;7.65;2.67;;;;;;;;;;4958447;28;20188;-85
2022/07/15 10:13:16;;;;;;;5.30;3.00;;;;;;;;;;4955428;28;20187;-85
2022/07/15 10:16:02;;;;;;;4.32;3.13;;;;;;;;;;4948953;29;20201;-85
2022/07/15 10:18:39;;;;;;;2.88;2.40;;;;;;;;;;4966192;28;20178;-86
2022/07/15 10:21:23;;;;;;;5.55;2.92;;;;;;;;;;4957495;28;20189;-85
2022/07/15 10:23:54;;;;;;;4.32;2.83;;;;;;;;;;4949495;28;20180;-85
2022/07/15 10:26:38;;;;;;;2.78;2.53;;;;;;;;;;4967604;28;20233;-86
2022/07/15 10:29:08;;;;;;;3.25;2.85;;;;;;;;;;4947571;28;20177;-85
2022/07/15 10:31:34;;;;;;;2.80;2.53;;;;;;;;;;4954519;28;20177;-85
2022/07/15 10:34:02;;;;;;;3.67;3.03;;;;;;;;;;4951771;28;20177;-85
2022/07/15 10:36:38;;;;;;;4.15;2.70;;;;;;;;;;4958115;28;20243;-86
2022/07/15 10:39:03;;;;;;;4.43;2.55;;;;;;;;;;4954193;28;20182;-86
2022/07/15 10:41:47;;;;;;;3.67;2.67;;;;;;;;;;4951367;29;20177;-86
2022/07/15 10:44:12;;;;;;;3.40;2.60;;;;;;;;;;4962646;28;20195;-86
2022/07/15 10:46:37;;;;;;;2.40;2.25;;;;;;;;;;4952622;28;20201;-86
2022/07/15 10:49:03;;;;;;;3.30;2.95;;;;;;;;;;4950553;28;20182;-86
2022/07/15 10:51:37;;;;;;;3.90;2.67;;;;;;;;;;4964132;28;20237;-85
2022/07/15 10:54:07;;;;;;;2.92;2.63;;;;;;;;;;4951707;28;20462;-86
2022/07/15 10:56:37;;;;;;;4.03;3.28;;;;;;;;;;4958158;28;20225;-86
2022/07/15 10:59:08;;;;;;;2.97;2.75;;;;;;;;;;4949189;29;20185;-84
2022/07/15 11:01:34;;;;;;;3.53;3.08;;;;;;;;;;4964023;28;20178;-86
2022/07/15 11:04:19;;;;;;;3.10;2.80;;;;;;;;;;4952236;28;20189;-86
2022/07/15 11:07:09;;;;;;;6.78;3.20;;;;;;;;;;4949980;28;20220;-86
2022/07/15 11:09:51;;;;;;;3.65;2.78;;;;;;;;;;4946922;29;20182;-85
2022/07/15 11:12:19;;;;;;;2.53;2.33;;;;;;;;;;4952198;28;20198;-85
2022/07/15 11:14:46;;;;;;;5.75;2.90;;;;;;;;;;4973948;28;20178;-86
2022/07/15 11:17:13;;;;;;;3.45;3.15;;;;;;;;;;4951495;28;20524;-85
2022/07/15 11:19:39;;;;;;;4.57;3.17;;;;;;;;;;4946437;28;20228;-86
2022/07/15 11:22:04;;;;;;;3.75;2.58;;;;;;;;;;4953795;28;20181;-87
2022/07/15 11:24:31;;;;;;;5.78;3.15;;;;;;;;;;4949890;28;20182;-86
2022/07/15 11:26:59;;;;;;;3.08;2.80;;;;;;;;;;4950977;28;20624;-87
2022/07/15 11:29:24;;;;;;;2.90;2.60;;;;;;;;;;4951315;28;20376;-87
2022/07/15 11:31:51;;;;;;;3.20;2.85;;;;;;;;;;4958911;28;20196;-87
2022/07/15 11:34:16;;;;;;;3.35;3.00;;;;;;;;;;4947382;29;20267;-87
2022/07/15 11:36:42;;;;;;;3.60;2.65;;;;;;;;;;4946993;28;20182;-87
2022/07/15 11:39:07;;;;;;;8.70;3.10;;;;;;;;;;4960524;28;20192;-86
2022/07/15 11:44:32;;;;;;;5.57;3.00;;;;;;;;;;4953405;28;20216;-87
2022/07/15 11:46:58;;;;;;;2.85;2.40;;;;;;;;;;4964114;28;20288;-87
2022/07/15 11:49:30;;;;;;;2.83;2.63;;;;;;;;;;4948816;28;20280;-87
2022/07/15 11:51:56;;;;;;;3.20;2.90;;;;;;;;;;4968838;28;20259;-82
2022/07/15 11:54:22;;;;;;;6.55;2.83;;;;;;;;;;4953520;28;20276;-86
2022/07/15 11:57:00;;;;;;;5.22;2.45;;;;;;;;;;4954122;28;20249;-87
2022/07/15 11:59:26;;;;;;;2.40;2.20;;;;;;;;;;4952599;28;20246;-86
2022/07/15 12:02:04;;;;;;;5.00;2.92;;;;;;;;;;4956052;28;20182;-86
2022/07/15 12:04:30;;;;;;;2.67;2.47;;;;;;;;;;4950248;28;20222;-87
2022/07/15 12:06:55;;;;;;;4.68;3.30;;;;;;;;;;4950356;28;20253;-86
2022/07/15 12:09:21;;;;;;;4.80;2.92;;;;;;;;;;4953547;28;20182;-87
2022/07/15 12:11:46;;;;;;;2.78;2.58;;;;;;;;;;4958840;28;20185;-87
2022/07/15 12:14:12;;;;;;;4.47;3.50;;;;;;;;;;4953754;28;20273;-86
2022/07/15 12:16:48;;;;;;;2.90;2.65;;;;;;;;;;4953359;28;20217;-87
2022/07/15 12:19:15;;;;;;;3.78;3.05;;;;;;;;;;4952282;28;20283;-87
2022/07/15 12:21:41;;;;;;;3.28;2.97;;;;;;;;;;4953214;28;20201;-87
2022/07/15 12:24:09;;;;;;;3.20;2.90;;;;;;;;;;4956323;28;20178;-86
2022/07/15 12:26:38;;;;;;;3.75;2.90;;;;;;;;;;4952619;28;20201;-87
2022/07/15 12:29:05;;;;;;;4.82;3.10;;;;;;;;;;4952222;28;20197;-86
2022/07/15 12:31:31;;;;;;;3.40;2.78;;;;;;;;;;4958914;28;20187;-86
2022/07/15 12:33:56;;;;;;;2.38;2.17;;;;;;;;;;4949348;28;20205;-87
2022/07/15 12:36:23;;;;;;;2.97;2.60;;;;;;;;;;4952527;28;20189;-86
2022/07/15 12:39:05;;;;;;;5.82;3.05;;;;;;;;;;4946697;28;20240;-87
2022/07/15 12:41:31;;;;;;;3.70;3.00;;;;;;;;;;4949406;28;20190;-86
2022/07/15 12:43:57;;;;;;;3.80;2.58;;;;;;;;;;4955302;28;20192;-87
2022/07/15 12:47:01;;;;;;;4.45;3.17;;;;;;;;;;4951949;28;20288;-86
2022/07/15 12:49:45;;;;;;;3.03;2.38;;;;;;;;;;4878682;29;20234;-87
2022/07/15 12:52:25;;;;;;;3.25;2.50;;;;;;;;;;4881373;29;20236;-87
2022/07/15 12:54:52;;;;;;;4.20;2.88;;;;;;;;;;4881087;29;20420;-87
2022/07/15 12:57:34;;;;;;;4.03;2.60;;;;;;;;;;4879513;29;20279;-87
2022/07/15 13:00:01;;;;;;;3.13;2.40;;;;;;;;;;4898562;29;20211;-86
2022/07/15 13:02:26;;;;;;;2.72;2.53;;;;;;;;;;4878637;29;20195;-86
2022/07/15 13:04:51;;;;;;;3.58;3.00;;;;;;;;;;4893214;29;20278;-86
2022/07/15 13:07:17;;;;;;;4.82;2.60;;;;;;;;;;4879790;29;20218;-86
2022/07/15 13:09:42;;;;;;;4.38;2.50;;;;;;;;;;4877936;29;20202;-87
2022/07/15 13:12:08;;;;;;;4.65;2.58;;;;;;;;;;4879587;29;20184;-86
2022/07/15 13:14:34;;;;;;;4.05;3.00;;;;;;;;;;4878844;29;20195;-86
2022/07/15 13:16:59;;;;;;;3.97;2.78;;;;;;;;;;4879619;29;20183;-87
2022/07/15 13:19:25;;;;;;;3.40;3.10;;;;;;;;;;4887924;28;20193;-86
2022/07/15 13:21:50;;;;;;;4.43;3.22;;;;;;;;;;4955290;28;20249;-86
2022/07/15 13:24:18;;;;;;;3.47;2.40;;;;;;;;;;4953613;28;20178;-87
2022/07/15 13:26:44;;;;;;;3.20;2.90;;;;;;;;;;4949989;28;20205;-87
2022/07/15 13:29:09;;;;;;;4.22;2.92;;;;;;;;;;4951674;28;20194;-86
2022/07/15 13:31:34;;;;;;;2.75;2.42;;;;;;;;;;4952932;28;20186;-86
2022/07/15 13:33:59;;;;;;;4.78;2.95;;;;;;;;;;4952947;28;20173;-87
2022/07/15 13:36:24;;;;;;;4.35;2.80;;;;;;;;;;4953144;28;20192;-87
2022/07/15 13:38:50;;;;;;;3.75;3.03;;;;;;;;;;4948115;28;20187;-86
2022/07/15 13:41:15;;;;;;;4.57;2.70;;;;;;;;;;4950469;28;20213;-86
2022/07/15 13:43:40;;;;;;;2.92;2.72;;;;;;;;;;4950835;28;20181;-87
2022/07/15 13:46:06;;;;;;;4.40;3.45;;;;;;;;;;4967837;28;20177;-86
2022/07/15 13:48:31;;;;;;;5.72;2.78;;;;;;;;;;4955095;28;20193;-87
2022/07/15 13:53:40;;;;;;;4.65;2.47;;;;;;;;;;4950122;28;20236;-86
2022/07/15 13:56:05;;;;;;;5.10;3.10;;;;;;;;;;4959751;28;20193;-86
2022/07/15 13:58:31;;;;;;;4.85;2.88;;;;;;;;;;4952403;28;20193;-87
2022/07/15 14:00:56;;;;;;;4.75;3.08;;;;;;;;;;4947883;28;20224;-87
2022/07/15 14:03:22;;;;;;;3.50;3.13;;;;;;;;;;4950702;29;20170;-88
2022/07/15 14:05:47;;;;;;;2.90;2.70;;;;;;;;;;4951997;28;20224;-87
2022/07/15 14:08:12;;;;;;;3.05;2.75;;;;;;;;;;4966016;28;20269;-87
2022/07/15 14:10:37;;;;;;;3.75;2.63;;;;;;;;;;4952678;28;20196;-87
2022/07/15 14:13:03;;;;;;;7.13;3.30;;;;;;;;;;4951340;29;20193;-87
2022/07/15 14:15:28;;;;;;;2.80;2.47;;;;;;;;;;4956302;28;20185;-87
2022/07/15 14:17:54;;;;;;;4.32;2.80;;;;;;;;;;4952931;28;20198;-87
2022/07/15 14:20:19;;;;;;;4.47;2.78;;;;;;;;;;4950896;28;20179;-86
2022/07/15 14:22:50;;;;;;;3.20;2.33;;;;;;;;;;4960049;28;20188;-86
2022/07/15 14:25:15;;;;;;;5.25;2.83;;;;;;;;;;4955172;28;20189;-87
2022/07/15 14:27:41;;;;;;;3.65;2.60;;;;;;;;;;4953580;28;20200;-87
2022/07/15 14:30:06;;;;;;;6.43;2.70;;;;;;;;;;4961423;28;20173;-87
2022/07/15 14:32:32;;;;;;;3.55;2.63;;;;;;;;;;4948638;28;20185;-88
2022/07/15 14:34:57;;;;;;;4.30;2.72;;;;;;;;;;4946992;28;20221;-88
2022/07/15 14:37:23;;;;;;;5.18;2.40;;;;;;;;;;4955409;28;20185;-88
2022/07/15 14:39:48;;;;;;;2.90;2.35;;;;;;;;;;4952841;28;20185;-88
2022/07/15 14:42:14;;;;;;;2.75;2.20;;;;;;;;;;4951165;28;20186;-87
2022/07/15 14:44:39;;;;;;;2.75;2.53;;;;;;;;;;4952998;28;20178;-85
2022/07/15 14:47:04;;;;;;;3.15;2.33;;;;;;;;;;4951600;28;20298;-89
2022/07/15 14:49:29;;;;;;;3.25;2.40;;;;;;;;;;4949954;28;20316;-87
2022/07/15 14:51:55;;;;;;;2.85;2.60;;;;;;;;;;4951999;28;20312;-87
2022/07/15 14:54:20;;;;;;;3.92;2.25;;;;;;;;;;4953376;28;20186;-88